sensor_id;sensor_type;location;lat;lon;timestamp;pressure;altitude;pressure_sealevel;temperature;humidity
2036;BME280;23642;42.658;23.350;2022-09-09T00:02:18;54493.59;;;-146.31;90.99
2036;BME280;23642;42.658;23.350;2022-09-09T00:04:54;54497.72;;;-146.31;91.44
2036;BME280;23642;42.658;23.350;2022-09-09T00:07:36;54481.19;;;-146.31;91.62
2036;BME280;23642;42.658;23.350;2022-09-09T00:10:15;54479.13;;;-146.31;92.10
2036;BME280;23642;42.658;23.350;2022-09-09T00:12:50;54446.09;;;-146.31;92.42
2036;BME280;23642;42.658;23.350;2022-09-09T00:15:22;54450.22;;;-146.31;92.51
2036;BME280;23642;42.658;23.350;2022-09-09T00:17:54;54437.84;;;-146.31;92.61
2036;BME280;23642;42.658;23.350;2022-09-09T00:20:29;54413.06;;;-146.31;92.92
2036;BME280;23642;42.658;23.350;2022-09-09T00:23:03;54398.59;;;-146.31;93.11
2036;BME280;23642;42.658;23.350;2022-09-09T00:25:37;54373.81;;;-146.31;93.15
2036;BME280;23642;42.658;23.350;2022-09-09T00:28:14;54373.81;;;-146.31;93.36
2036;BME280;23642;42.658;23.350;2022-09-09T00:30:44;54361.44;;;-146.31;93.72
2036;BME280;23642;42.658;23.350;2022-09-09T00:33:16;54349.03;;;-146.31;93.71
2036;BME280;23642;42.658;23.350;2022-09-09T00:35:48;54318.06;;;-146.31;94.19
2036;BME280;23642;42.658;23.350;2022-09-09T00:38:19;54309.81;;;-146.31;94.24
2036;BME280;23642;42.658;23.350;2022-09-09T00:40:50;54320.13;;;-146.31;94.37
2036;BME280;23642;42.658;23.350;2022-09-09T00:43:29;54247.88;;;-146.31;93.92
2036;BME280;23642;42.658;23.350;2022-09-09T00:48:57;54231.34;;;-146.31;93.98
2036;BME280;23642;42.658;23.350;2022-09-09T00:51:40;54262.31;;;-146.31;93.74
2036;BME280;23642;42.658;23.350;2022-09-09T00:54:27;54223.09;;;-146.31;93.84
2036;BME280;23642;42.658;23.350;2022-09-09T00:57:04;54218.97;;;-146.31;93.65
2036;BME280;23642;42.658;23.350;2022-09-09T00:59:39;54216.91;;;-146.31;93.54
2036;BME280;23642;42.658;23.350;2022-09-09T01:02:18;54198.31;;;-146.31;93.65
2036;BME280;23642;42.658;23.350;2022-09-09T01:04:47;54181.81;;;-146.31;92.71
2036;BME280;23642;42.658;23.350;2022-09-09T01:07:17;54235.47;;;-146.31;92.12
2036;BME280;23642;42.658;23.350;2022-09-09T01:09:52;54212.78;;;-146.31;92.69
2036;BME280;23642;42.658;23.350;2022-09-09T01:12:26;54208.63;;;-146.31;93.20
2036;BME280;23642;42.658;23.350;2022-09-09T01:15:01;54183.88;;;-146.31;93.09
2036;BME280;23642;42.658;23.350;2022-09-09T01:17:31;54171.47;;;-146.31;93.17
2036;BME280;23642;42.658;23.350;2022-09-09T01:20:06;54171.47;;;-146.31;93.26
2036;BME280;23642;42.658;23.350;2022-09-09T01:22:42;54146.69;;;-146.31;92.39
2036;BME280;23642;42.658;23.350;2022-09-09T01:25:22;54179.75;;;-146.31;92.48
2036;BME280;23642;42.658;23.350;2022-09-09T01:27:59;54159.09;;;-146.31;92.59
2036;BME280;23642;42.658;23.350;2022-09-09T01:30:28;54163.22;;;-146.31;92.74
2036;BME280;23642;42.658;23.350;2022-09-09T01:32:57;54161.16;;;-146.31;92.99
2036;BME280;23642;42.658;23.350;2022-09-09T01:35:40;54157.03;;;-146.31;93.21
2036;BME280;23642;42.658;23.350;2022-09-09T01:38:10;54084.75;;;-146.31;92.95
2036;BME280;23642;42.658;23.350;2022-09-09T01:40:37;54130.19;;;-146.31;92.27
2036;BME280;23642;42.658;23.350;2022-09-09T01:43:06;54150.84;;;-146.31;92.64
2036;BME280;23642;42.658;23.350;2022-09-09T01:45:33;54121.94;;;-146.31;92.57
2036;BME280;23642;42.658;23.350;2022-09-09T01:48:00;54095.09;;;-146.31;92.17
2036;BME280;23642;42.658;23.350;2022-09-09T01:50:28;54119.88;;;-146.31;92.19
2036;BME280;23642;42.658;23.350;2022-09-09T01:52:57;54167.34;;;-146.31;92.35
2036;BME280;23642;42.658;23.350;2022-09-09T01:55:29;54130.19;;;-146.31;92.72
2036;BME280;23642;42.658;23.350;2022-09-09T01:58:09;54105.41;;;-146.31;93.02
2036;BME280;23642;42.658;23.350;2022-09-09T02:00:44;54117.78;;;-146.31;92.89
2036;BME280;23642;42.658;23.350;2022-09-09T02:03:20;54109.53;;;-146.31;92.87
2036;BME280;23642;42.658;23.350;2022-09-09T02:05:55;54109.53;;;-146.31;92.97
2036;BME280;23642;42.658;23.350;2022-09-09T02:08:31;54117.78;;;-146.31;93.06
2036;BME280;23642;42.658;23.350;2022-09-09T02:11:03;54084.75;;;-146.31;92.96
2036;BME280;23642;42.658;23.350;2022-09-09T02:13:36;54088.88;;;-146.31;92.58
2036;BME280;23642;42.658;23.350;2022-09-09T02:16:07;54093.03;;;-146.31;93.15
2036;BME280;23642;42.658;23.350;2022-09-09T02:18:40;54101.28;;;-146.31;93.07
2036;BME280;23642;42.658;23.350;2022-09-09T02:21:11;54103.34;;;-146.31;93.56
2036;BME280;23642;42.658;23.350;2022-09-09T02:23:41;54113.66;;;-146.31;94.23
2036;BME280;23642;42.658;23.350;2022-09-09T02:26:10;54101.28;;;-146.31;94.60
2036;BME280;23642;42.658;23.350;2022-09-09T02:28:41;54105.41;;;-146.31;94.81
2036;BME280;23642;42.658;23.350;2022-09-09T02:31:09;54082.69;;;-146.31;95.19
2036;BME280;23642;42.658;23.350;2022-09-09T02:33:40;54076.50;;;-146.31;95.56
2036;BME280;23642;42.658;23.350;2022-09-09T02:36:09;54064.13;;;-146.31;95.71
2036;BME280;23642;42.658;23.350;2022-09-09T02:38:41;54031.09;;;-146.31;95.90
2036;BME280;23642;42.658;23.350;2022-09-09T02:41:11;54010.44;;;-146.31;96.21
2036;BME280;23642;42.658;23.350;2022-09-09T02:43:38;53973.28;;;-146.31;96.18
2036;BME280;23642;42.658;23.350;2022-09-09T02:46:18;53993.91;;;-146.31;95.81
2036;BME280;23642;42.658;23.350;2022-09-09T02:48:58;53958.81;;;-146.31;96.02
2036;BME280;23642;42.658;23.350;2022-09-09T02:51:32;53931.97;;;-146.31;96.06
2036;BME280;23642;42.658;23.350;2022-09-09T02:54:10;53878.31;;;-146.31;95.63
2036;BME280;23642;42.658;23.350;2022-09-09T02:56:44;53894.81;;;-146.31;95.23
2036;BME280;23642;42.658;23.350;2022-09-09T02:59:15;53942.31;;;-146.31;95.33
2036;BME280;23642;42.658;23.350;2022-09-09T03:01:45;53919.59;;;-146.31;95.76
2036;BME280;23642;42.658;23.350;2022-09-09T03:04:12;53892.75;;;-146.31;96.09
2036;BME280;23642;42.658;23.350;2022-09-09T03:06:39;53894.81;;;-146.31;96.12
2036;BME280;23642;42.658;23.350;2022-09-09T03:09:06;53847.34;;;-146.31;96.25
2036;BME280;23642;42.658;23.350;2022-09-09T03:11:36;53832.88;;;-146.31;96.41
2036;BME280;23642;42.658;23.350;2022-09-09T03:14:03;53830.81;;;-146.31;96.59
2036;BME280;23642;42.658;23.350;2022-09-09T03:16:30;53783.34;;;-146.31;96.19
2036;BME280;23642;42.658;23.350;2022-09-09T03:18:59;53781.28;;;-146.31;95.89
2036;BME280;23642;42.658;23.350;2022-09-09T03:21:26;53814.31;;;-146.31;95.06
2036;BME280;23642;42.658;23.350;2022-09-09T03:23:53;53828.75;;;-146.31;94.93
2036;BME280;23642;42.658;23.350;2022-09-09T03:26:20;53812.25;;;-146.31;95.24
2036;BME280;23642;42.658;23.350;2022-09-09T03:28:48;53808.13;;;-146.31;95.46
2036;BME280;23642;42.658;23.350;2022-09-09T03:31:17;53799.84;;;-146.31;95.41
2036;BME280;23642;42.658;23.350;2022-09-09T03:33:44;53818.44;;;-146.31;95.82
2036;BME280;23642;42.658;23.350;2022-09-09T03:36:13;53797.78;;;-146.31;96.13
2036;BME280;23642;42.658;23.350;2022-09-09T03:38:40;53783.34;;;-146.31;95.94
2036;BME280;23642;42.658;23.350;2022-09-09T03:41:07;53773.03;;;-146.31;95.72
2036;BME280;23642;42.658;23.350;2022-09-09T03:43:34;53770.97;;;-146.31;95.69
2036;BME280;23642;42.658;23.350;2022-09-09T03:46:03;53787.47;;;-146.31;95.49
2036;BME280;23642;42.658;23.350;2022-09-09T03:48:30;53783.34;;;-146.31;95.82
2036;BME280;23642;42.658;23.350;2022-09-09T03:50:57;53777.16;;;-146.31;96.34
2036;BME280;23642;42.658;23.350;2022-09-09T03:53:28;53758.56;;;-146.31;96.75
2036;BME280;23642;42.658;23.350;2022-09-09T03:55:56;53746.19;;;-146.31;96.85
2036;BME280;23642;42.658;23.350;2022-09-09T03:58:25;53742.06;;;-146.31;96.86
2036;BME280;23642;42.658;23.350;2022-09-09T04:00:54;53686.31;;;-146.31;97.24
2036;BME280;23642;42.658;23.350;2022-09-09T04:03:22;53645.03;;;-146.31;97.34
2036;BME280;23642;42.658;23.350;2022-09-09T04:05:50;53622.31;;;-146.31;96.73
2036;BME280;23642;42.658;23.350;2022-09-09T04:08:16;53655.34;;;-146.31;96.27
2036;BME280;23642;42.658;23.350;2022-09-09T04:10:46;53647.09;;;-146.31;96.51
2036;BME280;23642;42.658;23.350;2022-09-09T04:13:13;53651.22;;;-146.31;96.76
2036;BME280;23642;42.658;23.350;2022-09-09T04:15:42;53607.88;;;-146.31;96.79
2036;BME280;23642;42.658;23.350;2022-09-09T04:18:09;53612.00;;;-146.31;96.78
2036;BME280;23642;42.658;23.350;2022-09-09T04:20:37;53566.59;;;-146.31;96.46
2036;BME280;23642;42.658;23.350;2022-09-09T04:23:04;53585.16;;;-146.31;95.40
2036;BME280;23642;42.658;23.350;2022-09-09T04:25:31;53599.63;;;-146.31;95.59
2036;BME280;23642;42.658;23.350;2022-09-09T04:28:01;53593.41;;;-146.31;95.96
2036;BME280;23642;42.658;23.350;2022-09-09T04:30:28;53585.16;;;-146.31;95.98
2036;BME280;23642;42.658;23.350;2022-09-09T04:32:56;53578.97;;;-146.31;95.29
2036;BME280;23642;42.658;23.350;2022-09-09T04:35:23;53572.78;;;-146.31;95.03
2036;BME280;23642;42.658;23.350;2022-09-09T04:37:50;53589.28;;;-146.31;94.88
2036;BME280;23642;42.658;23.350;2022-09-09T04:40:17;53568.66;;;-146.31;94.88
2036;BME280;23642;42.658;23.350;2022-09-09T04:42:44;53591.34;;;-146.31;94.65
2036;BME280;23642;42.658;23.350;2022-09-09T04:45:15;53570.72;;;-146.31;94.24
2036;BME280;23642;42.658;23.350;2022-09-09T04:47:42;53591.34;;;-146.31;93.76
2036;BME280;23642;42.658;23.350;2022-09-09T04:50:10;53581.03;;;-146.31;93.26
2036;BME280;23642;42.658;23.350;2022-09-09T04:52:37;53576.91;;;-146.31;93.31
2036;BME280;23642;42.658;23.350;2022-09-09T04:55:05;53564.53;;;-146.31;92.96
2036;BME280;23642;42.658;23.350;2022-09-09T04:57:32;53556.25;;;-146.31;92.74
2036;BME280;23642;42.658;23.350;2022-09-09T04:59:59;53548.00;;;-146.31;92.76
2036;BME280;23642;42.658;23.350;2022-09-09T05:02:29;53531.50;;;-146.31;91.99
2036;BME280;23642;42.658;23.350;2022-09-09T05:04:56;53552.13;;;-146.31;90.46
2036;BME280;23642;42.658;23.350;2022-09-09T05:07:23;53560.41;;;-146.31;88.22
2036;BME280;23642;42.658;23.350;2022-09-09T05:09:51;53634.72;;;-146.31;84.77
2036;BME280;23642;42.658;23.350;2022-09-09T05:12:19;53655.34;;;-146.31;83.72
2036;BME280;23642;42.658;23.350;2022-09-09T05:14:47;53630.56;;;-146.31;84.51
2036;BME280;23642;42.658;23.350;2022-09-09T05:17:14;53640.91;;;-146.31;85.11
2036;BME280;23642;42.658;23.350;2022-09-09T05:19:43;53620.25;;;-146.31;84.57
2036;BME280;23642;42.658;23.350;2022-09-09T05:22:20;53609.94;;;-146.31;83.41
2036;BME280;23642;42.658;23.350;2022-09-09T05:24:48;53661.53;;;-146.31;80.84
2036;BME280;23642;42.658;23.350;2022-09-09T05:27:16;53713.16;;;-146.31;80.22
2036;BME280;23642;42.658;23.350;2022-09-09T05:29:43;53752.38;;;-146.31;79.36
2036;BME280;23642;42.658;23.350;2022-09-09T05:32:12;53768.91;;;-146.31;77.72
2036;BME280;23642;42.658;23.350;2022-09-09T05:34:41;53799.84;;;-146.31;76.61
2036;BME280;23642;42.658;23.350;2022-09-09T05:37:09;53824.63;;;-146.31;75.39
2036;BME280;23642;42.658;23.350;2022-09-09T05:39:36;53816.38;;;-146.31;75.32
2036;BME280;23642;42.658;23.350;2022-09-09T05:42:09;53781.28;;;-146.31;75.69
2036;BME280;23642;42.658;23.350;2022-09-09T05:44:36;53814.31;;;-146.31;74.57
2036;BME280;23642;42.658;23.350;2022-09-09T05:47:03;53847.34;;;-146.31;72.60
2036;BME280;23642;42.658;23.350;2022-09-09T05:49:30;53870.06;;;-146.31;72.67
2036;BME280;23642;42.658;23.350;2022-09-09T05:51:58;53903.09;;;-146.31;71.22
2036;BME280;23642;42.658;23.350;2022-09-09T05:54:26;53921.66;;;-146.31;70.92
2036;BME280;23642;42.658;23.350;2022-09-09T05:56:53;54010.44;;;-146.31;69.33
2036;BME280;23642;42.658;23.350;2022-09-09T05:59:20;53975.34;;;-146.31;69.06
2036;BME280;23642;42.658;23.350;2022-09-09T06:01:48;53983.59;;;-146.31;68.56
2036;BME280;23642;42.658;23.350;2022-09-09T06:04:15;54039.34;;;-146.31;66.77
2036;BME280;23642;42.658;23.350;2022-09-09T06:06:42;54006.31;;;-146.31;67.93
2036;BME280;23642;42.658;23.350;2022-09-09T06:09:09;54020.75;;;-146.31;67.27
2036;BME280;23642;42.658;23.350;2022-09-09T06:11:39;54082.69;;;-146.31;67.20
2036;BME280;23642;42.658;23.350;2022-09-09T06:14:07;54070.31;;;-146.31;67.65
2036;BME280;23642;42.658;23.350;2022-09-09T06:16:35;54117.78;;;-146.31;66.70
2036;BME280;23642;42.658;23.350;2022-09-09T06:19:03;54051.72;;;-146.31;66.93
2036;BME280;23642;42.658;23.350;2022-09-09T06:21:31;54109.53;;;-146.31;66.12
2036;BME280;23642;42.658;23.350;2022-09-09T06:23:59;54082.69;;;-146.31;65.90
2036;BME280;23642;42.658;23.350;2022-09-09T06:26:27;54105.41;;;-146.31;65.31
2036;BME280;23642;42.658;23.350;2022-09-09T06:28:58;54080.63;;;-146.31;64.62
2036;BME280;23642;42.658;23.350;2022-09-09T06:31:26;54136.38;;;-146.31;64.42
2036;BME280;23642;42.658;23.350;2022-09-09T06:33:56;54111.59;;;-146.31;64.25
2036;BME280;23642;42.658;23.350;2022-09-09T06:36:24;54066.19;;;-146.31;64.63
2036;BME280;23642;42.658;23.350;2022-09-09T06:38:52;54117.78;;;-146.31;65.55
2036;BME280;23642;42.658;23.350;2022-09-09T06:41:21;54082.69;;;-146.31;66.13
2036;BME280;23642;42.658;23.350;2022-09-09T06:43:49;54150.84;;;-146.31;65.75
2036;BME280;23642;42.658;23.350;2022-09-09T06:46:18;54117.78;;;-146.31;66.23
2036;BME280;23642;42.658;23.350;2022-09-09T06:48:47;54163.22;;;-146.31;65.89
2036;BME280;23642;42.658;23.350;2022-09-09T06:51:16;54117.78;;;-146.31;65.59
2036;BME280;23642;42.658;23.350;2022-09-09T06:53:45;54064.13;;;-146.31;65.10
2036;BME280;23642;42.658;23.350;2022-09-09T06:56:20;54080.63;;;-146.31;63.07
2036;BME280;23642;42.658;23.350;2022-09-09T06:58:49;54074.44;;;-146.31;63.46
2036;BME280;23642;42.658;23.350;2022-09-09T07:01:19;54068.25;;;-146.31;62.41
2036;BME280;23642;42.658;23.350;2022-09-09T07:03:48;54093.03;;;-146.31;62.76
2036;BME280;23642;42.658;23.350;2022-09-09T07:06:17;54084.75;;;-146.31;62.35
2036;BME280;23642;42.658;23.350;2022-09-09T07:08:48;54128.13;;;-146.31;62.28
2036;BME280;23642;42.658;23.350;2022-09-09T07:11:17;54126.06;;;-146.31;62.18
2036;BME280;23642;42.658;23.350;2022-09-09T07:13:45;54097.16;;;-146.31;62.07
2036;BME280;23642;42.658;23.350;2022-09-09T07:16:13;54031.09;;;-146.31;61.86
2036;BME280;23642;42.658;23.350;2022-09-09T07:18:43;54016.63;;;-146.31;61.19
2036;BME280;23642;42.658;23.350;2022-09-09T07:21:11;53998.06;;;-146.31;60.48
2036;BME280;23642;42.658;23.350;2022-09-09T07:23:40;53985.66;;;-146.31;60.30
2036;BME280;23642;42.658;23.350;2022-09-09T07:26:09;54033.16;;;-146.31;57.75
2036;BME280;23642;42.658;23.350;2022-09-09T07:28:37;54039.34;;;-146.31;57.49
2036;BME280;23642;42.658;23.350;2022-09-09T07:31:14;54012.50;;;-146.31;57.29
2036;BME280;23642;42.658;23.350;2022-09-09T07:33:44;53989.78;;;-146.31;56.92
2036;BME280;23642;42.658;23.350;2022-09-09T07:36:14;54018.69;;;-146.31;56.22
2036;BME280;23642;42.658;23.350;2022-09-09T07:38:44;54105.41;;;-146.31;56.82
2036;BME280;23642;42.658;23.350;2022-09-09T07:41:14;54031.09;;;-146.31;56.46
2036;BME280;23642;42.658;23.350;2022-09-09T07:43:43;54055.84;;;-146.31;55.31
2036;BME280;23642;42.658;23.350;2022-09-09T07:46:11;54072.38;;;-146.31;54.79
2036;BME280;23642;42.658;23.350;2022-09-09T07:48:47;54018.69;;;-146.31;54.98
2036;BME280;23642;42.658;23.350;2022-09-09T07:51:18;53998.06;;;-146.31;53.66
2036;BME280;23642;42.658;23.350;2022-09-09T07:53:47;54072.38;;;-146.31;53.13
2036;BME280;23642;42.658;23.350;2022-09-09T07:56:16;54035.22;;;-146.31;53.56
2036;BME280;23642;42.658;23.350;2022-09-09T07:58:45;54016.63;;;-146.31;52.36
2036;BME280;23642;42.658;23.350;2022-09-09T08:01:14;54086.81;;;-146.31;51.47
2036;BME280;23642;42.658;23.350;2022-09-09T08:03:55;54105.41;;;-146.31;51.18
2036;BME280;23642;42.658;23.350;2022-09-09T08:06:39;54146.69;;;-146.31;50.53
2036;BME280;23642;42.658;23.350;2022-09-09T08:09:20;54365.56;;;-146.31;49.29
2036;BME280;23642;42.658;23.350;2022-09-09T08:11:55;54336.66;;;-146.31;48.67
2036;BME280;23642;42.658;23.350;2022-09-09T08:14:26;54415.13;;;-146.31;49.11
2036;BME280;23642;42.658;23.350;2022-09-09T08:16:53;54386.22;;;-146.31;48.51
2036;BME280;23642;42.658;23.350;2022-09-09T08:19:24;54355.25;;;-146.31;48.89
2036;BME280;23642;42.658;23.350;2022-09-09T08:21:51;54353.19;;;-146.31;47.84
2036;BME280;23642;42.658;23.350;2022-09-09T08:24:24;54431.63;;;-146.31;46.74
2036;BME280;23642;42.658;23.350;2022-09-09T08:26:52;54460.53;;;-146.31;45.96
2036;BME280;23642;42.658;23.350;2022-09-09T08:29:19;54518.38;;;-146.31;46.52
2036;BME280;23642;42.658;23.350;2022-09-09T08:32:01;54505.97;;;-146.31;46.33
2036;BME280;23642;42.658;23.350;2022-09-09T08:34:49;54481.19;;;-146.31;45.43
2036;BME280;23642;42.658;23.350;2022-09-09T08:37:16;54503.91;;;-146.31;46.49
2036;BME280;23642;42.658;23.350;2022-09-09T08:39:45;54373.81;;;-146.31;44.76
2036;BME280;23642;42.658;23.350;2022-09-09T08:42:29;54425.44;;;-146.31;44.28
2036;BME280;23642;42.658;23.350;2022-09-09T08:45:24;54384.16;;;-146.31;43.46
2036;BME280;23642;42.658;23.350;2022-09-09T08:48:08;54495.66;;;-146.31;43.45
2036;BME280;23642;42.658;23.350;2022-09-09T08:50:40;54448.16;;;-146.31;43.75
2036;BME280;23642;42.658;23.350;2022-09-09T08:53:13;54394.47;;;-146.31;43.36
2036;BME280;23642;42.658;23.350;2022-09-09T08:55:48;54316.00;;;-146.31;42.29
2036;BME280;23642;42.658;23.350;2022-09-09T08:58:19;54282.97;;;-146.31;42.49
2036;BME280;23642;42.658;23.350;2022-09-09T09:01:02;54545.19;;;-146.31;43.18
2036;BME280;23642;42.658;23.350;2022-09-09T09:03:41;54627.81;;;-146.31;44.46
2036;BME280;23642;42.658;23.350;2022-09-09T09:06:26;54505.97;;;-146.31;44.19
2036;BME280;23642;42.658;23.350;2022-09-09T09:09:06;54462.59;;;-146.31;42.19
2036;BME280;23642;42.658;23.350;2022-09-09T09:11:39;54493.59;;;-146.31;42.25
2036;BME280;23642;42.658;23.350;2022-09-09T09:14:11;54499.78;;;-146.31;43.07
2036;BME280;23642;42.658;23.350;2022-09-09T09:16:49;54528.69;;;-146.31;43.03
2036;BME280;23642;42.658;23.350;2022-09-09T09:19:17;54505.97;;;-146.31;42.59
2036;BME280;23642;42.658;23.350;2022-09-09T09:21:54;54406.84;;;-146.31;41.75
2036;BME280;23642;42.658;23.350;2022-09-09T09:24:29;54448.16;;;-146.31;41.04
2036;BME280;23642;42.658;23.350;2022-09-09T09:27:06;54404.78;;;-146.31;41.04
2036;BME280;23642;42.658;23.350;2022-09-09T09:29:38;54357.31;;;-146.31;40.38
2036;BME280;23642;42.658;23.350;2022-09-09T09:32:10;54431.63;;;-146.31;40.57
2036;BME280;23642;42.658;23.350;2022-09-09T09:34:40;54394.47;;;-146.31;39.89
2036;BME280;23642;42.658;23.350;2022-09-09T09:37:13;54510.09;;;-146.31;41.11
2036;BME280;23642;42.658;23.350;2022-09-09T09:39:44;54528.69;;;-146.31;41.84
2036;BME280;23642;42.658;23.350;2022-09-09T09:42:13;54423.38;;;-146.31;40.27
2036;BME280;23642;42.658;23.350;2022-09-09T09:44:40;54375.88;;;-146.31;40.18
2036;BME280;23642;42.658;23.350;2022-09-09T09:47:11;54417.19;;;-146.31;40.22
2036;BME280;23642;42.658;23.350;2022-09-09T09:49:39;54287.09;;;-146.31;39.00
2036;BME280;23642;42.658;23.350;2022-09-09T09:52:13;54241.69;;;-146.31;39.20
2036;BME280;23642;42.658;23.350;2022-09-09T09:54:44;54320.13;;;-146.31;41.17
2036;BME280;23642;42.658;23.350;2022-09-09T09:57:12;54262.31;;;-146.31;39.52
2036;BME280;23642;42.658;23.350;2022-09-09T09:59:44;54243.75;;;-146.31;39.62
2036;BME280;23642;42.658;23.350;2022-09-09T10:02:18;54301.56;;;-146.31;39.20
2036;BME280;23642;42.658;23.350;2022-09-09T10:04:45;54346.97;;;-146.31;39.34
2036;BME280;23642;42.658;23.350;2022-09-09T10:07:18;54309.81;;;-146.31;39.38
2036;BME280;23642;42.658;23.350;2022-09-09T10:09:48;54377.94;;;-146.31;39.38
2036;BME280;23642;42.658;23.350;2022-09-09T10:15:26;54479.13;;;-146.31;40.51
2036;BME280;23642;42.658;23.350;2022-09-09T10:18:04;54487.38;;;-146.31;40.32
2036;BME280;23642;42.658;23.350;2022-09-09T10:20:40;54524.56;;;-146.31;40.40
2036;BME280;23642;42.658;23.350;2022-09-09T10:23:26;54590.63;;;-146.31;41.44
2036;BME280;23642;42.658;23.350;2022-09-09T10:26:13;54642.25;;;-146.31;41.94
2036;BME280;23642;42.658;23.350;2022-09-09T10:29:07;54664.97;;;-146.31;42.38
2036;BME280;23642;42.658;23.350;2022-09-09T10:31:43;54652.59;;;-146.31;42.43
2036;BME280;23642;42.658;23.350;2022-09-09T10:34:35;54584.44;;;-146.31;42.92
2036;BME280;23642;42.658;23.350;2022-09-09T10:37:15;54567.91;;;-146.31;42.39
2036;BME280;23642;42.658;23.350;2022-09-09T10:39:52;54580.31;;;-146.31;41.90
2036;BME280;23642;42.658;23.350;2022-09-09T10:42:28;54654.66;;;-146.31;42.04
2036;BME280;23642;42.658;23.350;2022-09-09T10:45:07;54644.31;;;-146.31;42.76
2036;BME280;23642;42.658;23.350;2022-09-09T10:47:53;54702.13;;;-146.31;43.73
2036;BME280;23642;42.658;23.350;2022-09-09T10:50:42;54718.66;;;-146.31;43.37
2036;BME280;23642;42.658;23.350;2022-09-09T10:53:18;54664.97;;;-146.31;43.67
2036;BME280;23642;42.658;23.350;2022-09-09T10:55:56;54691.81;;;-146.31;43.72
2036;BME280;23642;42.658;23.350;2022-09-09T10:58:31;54728.97;;;-146.31;44.01
2036;BME280;23642;42.658;23.350;2022-09-09T11:01:13;54718.66;;;-146.31;44.38
2036;BME280;23642;42.658;23.350;2022-09-09T11:03:43;54764.09;;;-146.31;44.45
2036;BME280;23642;42.658;23.350;2022-09-09T11:06:18;54728.97;;;-146.31;44.68
2036;BME280;23642;42.658;23.350;2022-09-09T11:08:46;54695.94;;;-146.31;44.06
2036;BME280;23642;42.658;23.350;2022-09-09T11:11:25;54675.28;;;-146.31;43.74
2036;BME280;23642;42.658;23.350;2022-09-09T11:13:57;54683.56;;;-146.31;44.81
2036;BME280;23642;42.658;23.350;2022-09-09T11:16:36;54654.66;;;-146.31;44.59
2036;BME280;23642;42.658;23.350;2022-09-09T11:19:13;54654.66;;;-146.31;43.88
2036;BME280;23642;42.658;23.350;2022-09-09T11:21:45;54629.88;;;-146.31;43.84
2036;BME280;23642;42.658;23.350;2022-09-09T11:24:17;54545.19;;;-146.31;43.01
2036;BME280;23642;42.658;23.350;2022-09-09T11:26:55;54489.44;;;-146.31;42.09
2036;BME280;23642;42.658;23.350;2022-09-09T11:35:47;54444.03;;;-146.31;41.58
2036;BME280;23642;42.658;23.350;2022-09-09T11:38:19;54373.81;;;-146.31;41.80
2036;BME280;23642;42.658;23.350;2022-09-09T11:40:55;54408.94;;;-146.31;40.64
2036;BME280;23642;42.658;23.350;2022-09-09T11:43:28;54408.94;;;-146.31;41.23
2036;BME280;23642;42.658;23.350;2022-09-09T11:45:58;54377.94;;;-146.31;40.80
2036;BME280;23642;42.658;23.350;2022-09-09T11:48:31;54505.97;;;-146.31;41.53
2036;BME280;23642;42.658;23.350;2022-09-09T11:51:02;54464.69;;;-146.31;41.65
2036;BME280;23642;42.658;23.350;2022-09-09T11:53:31;54574.13;;;-146.31;42.46
2036;BME280;23642;42.658;23.350;2022-09-09T11:56:12;54594.75;;;-146.31;43.35
2036;BME280;23642;42.658;23.350;2022-09-09T11:58:55;54584.44;;;-146.31;42.71
2036;BME280;23642;42.658;23.350;2022-09-09T12:01:36;54559.66;;;-146.31;42.63
2036;BME280;23642;42.658;23.350;2022-09-09T12:04:26;54468.81;;;-146.31;42.76
2036;BME280;23642;42.658;23.350;2022-09-09T12:06:58;54444.03;;;-146.31;42.54
2036;BME280;23642;42.658;23.350;2022-09-09T12:09:32;54468.81;;;-146.31;42.67
2036;BME280;23642;42.658;23.350;2022-09-09T12:12:21;54452.28;;;-146.31;42.76
2036;BME280;23642;42.658;23.350;2022-09-09T12:14:58;54431.63;;;-146.31;42.56
2036;BME280;23642;42.658;23.350;2022-09-09T12:17:27;54415.13;;;-146.31;42.61
2036;BME280;23642;42.658;23.350;2022-09-09T12:20:06;54421.31;;;-146.31;42.69
2036;BME280;23642;42.658;23.350;2022-09-09T12:22:45;54508.03;;;-146.31;43.26
2036;BME280;23642;42.658;23.350;2022-09-09T12:25:20;54357.31;;;-146.31;42.56
2036;BME280;23642;42.658;23.350;2022-09-09T12:28:01;54404.78;;;-146.31;42.26
2036;BME280;23642;42.658;23.350;2022-09-09T12:30:34;54311.88;;;-146.31;41.18
2036;BME280;23642;42.658;23.350;2022-09-09T12:33:10;54351.09;;;-146.31;41.36
2036;BME280;23642;42.658;23.350;2022-09-09T12:35:38;54396.53;;;-146.31;42.49
2036;BME280;23642;42.658;23.350;2022-09-09T12:38:11;54369.69;;;-146.31;42.50
2036;BME280;23642;42.658;23.350;2022-09-09T12:40:40;54377.94;;;-146.31;42.64
2036;BME280;23642;42.658;23.350;2022-09-09T12:43:18;54349.03;;;-146.31;42.04
2036;BME280;23642;42.658;23.350;2022-09-09T12:45:49;54328.41;;;-146.31;42.19
2036;BME280;23642;42.658;23.350;2022-09-09T12:48:27;54301.56;;;-146.31;42.64
2036;BME280;23642;42.658;23.350;2022-09-09T12:50:57;54452.28;;;-146.31;42.52
2036;BME280;23642;42.658;23.350;2022-09-09T12:53:27;54357.31;;;-146.31;42.30
2036;BME280;23642;42.658;23.350;2022-09-09T12:55:57;54332.53;;;-146.31;42.00
2036;BME280;23642;42.658;23.350;2022-09-09T12:58:25;54421.31;;;-146.31;42.96
2036;BME280;23642;42.658;23.350;2022-09-09T13:00:56;54270.59;;;-146.31;43.34
2036;BME280;23642;42.658;23.350;2022-09-09T13:03:24;54258.19;;;-146.31;42.07
2036;BME280;23642;42.658;23.350;2022-09-09T13:05:52;54365.56;;;-146.31;42.24
2036;BME280;23642;42.658;23.350;2022-09-09T13:08:20;54311.88;;;-146.31;44.26
2036;BME280;23642;42.658;23.350;2022-09-09T13:10:50;54282.97;;;-146.31;43.01
2036;BME280;23642;42.658;23.350;2022-09-09T13:13:24;54276.78;;;-146.31;41.64
2036;BME280;23642;42.658;23.350;2022-09-09T13:15:58;54295.34;;;-146.31;41.62
2036;BME280;23642;42.658;23.350;2022-09-09T13:18:27;54349.03;;;-146.31;41.90